Aérodrome :
LOGIN :

S'inscrire | Disclaimer

   EN    FR    IT 

 










Légende :    VFR   VFR Marginal   IFR   IFR Intensif   IFR Très Intensif
Visi : 
Plafond : 
>= 8 km
>= 3000ft
5 à 8 km
1000 à 3000 ft
1500m à 5 km
500 à 1000 ft
800 à 1500m
200 à 500 ft
< 800m
< 200 ft
Symboles :   Orages  Brouillard  Fortes neiges  Fortes précipitations  Vent > 20 kt
SIGMETs :   Divers  Orages  Givrage  Turbulence  Onde Orograph.  Cendres Volcan.






- Altitude de l'aérodrome : 157 ft
- Code IATA : SXF


EDDB - Berlin Schönefeld

DERNIER METAR :
  • 250620Z 22009KT 1900 -FZDZ BR BKN003 M00/M00 Q1021 NOSIG

METARs EXPIRÉS :
  • 250550Z 22009KT 2400 -FZDZ BR BKN003 M00/M00 Q1021 NOSIG
  • 250520Z 23010KT 2400 -FZDZ BR BKN003 M00/M00 Q1021 NOSIG
  • 250450Z 23008KT 2400 -FZDZ BR BKN003 M00/M00 Q1021 NOSIG
  • 250420Z 23009KT 2400 -FZDZ BR BKN003 M00/M00 Q1021 NOSIG
  • 250350Z 24008KT 2400 -FZDZ BR BKN003 M00/M00 Q1021 NOSIG

TAF TAF EDDB
Valide du 25 à 06h jusqu'au 26 à 06h UTC


250500Z 2506/2606 24010KT 3000 BR BKN003
TEMPO 2506/2509 2000 -FZDZ
TEMPO 2509/2512 2000 -DZ
BECMG 2509/2512 6000 BKN008
TEMPO 2512/2519 BKN012
TEMPO 2521/2606 4000 BR BKN004



MET'MAP, la Météo Aéronautique d'un coup d'oeil ! - Copyright ORBIFLY Décembre 2007 - Disclaimer

ORBIFLY MET'MAP TEAM :

Programmation & Développement : Alexandra Zaïnal
Sur une idée originale de : Baudouin d'Aumeries
Assistance à la programmation : Marc-Olivier Méhu
Soutien technique & logistique : Manuel Goepfert

Contact : metmap@orbifly.com




SOURCES & CREDITS :

   NOAA